sensor_id;sensor_type;location;lat;lon;timestamp;P1;durP1;ratioP1;P2;durP2;ratioP2
8317;SDS011;4196;48.926;8.964;2024-02-15T01:11:37;2.47;;;2.20;;
8317;SDS011;4196;48.926;8.964;2024-02-15T01:14:24;3.17;;;2.07;;
8317;SDS011;4196;48.926;8.964;2024-02-15T01:17:10;5.13;;;3.00;;
8317;SDS011;4196;48.926;8.964;2024-02-15T01:19:57;4.40;;;2.30;;
8317;SDS011;4196;48.926;8.964;2024-02-15T01:22:43;2.57;;;2.00;;
8317;SDS011;4196;48.926;8.964;2024-02-15T01:25:30;2.83;;;2.20;;
8317;SDS011;4196;48.926;8.964;2024-02-15T01:28:17;2.87;;;2.10;;
8317;SDS011;4196;48.926;8.964;2024-02-15T01:31:05;3.27;;;2.20;;
8317;SDS011;4196;48.926;8.964;2024-02-15T01:33:53;2.63;;;2.07;;
8317;SDS011;4196;48.926;8.964;2024-02-15T01:36:39;2.73;;;1.90;;
8317;SDS011;4196;48.926;8.964;2024-02-15T01:39:26;3.03;;;1.93;;
8317;SDS011;4196;48.926;8.964;2024-02-15T01:42:12;4.17;;;2.27;;
8317;SDS011;4196;48.926;8.964;2024-02-15T01:45:01;2.47;;;1.93;;
8317;SDS011;4196;48.926;8.964;2024-02-15T01:47:48;2.10;;;1.90;;
8317;SDS011;4196;48.926;8.964;2024-02-15T01:50:35;2.43;;;1.80;;
8317;SDS011;4196;48.926;8.964;2024-02-15T01:53:22;3.30;;;2.07;;
8317;SDS011;4196;48.926;8.964;2024-02-15T01:56:10;4.50;;;2.07;;
8317;SDS011;4196;48.926;8.964;2024-02-15T01:58:59;4.13;;;2.20;;
8317;SDS011;4196;48.926;8.964;2024-02-15T02:01:46;1.90;;;1.60;;
8317;SDS011;4196;48.926;8.964;2024-02-15T02:04:32;2.07;;;1.77;;
8317;SDS011;4196;48.926;8.964;2024-02-15T02:07:19;2.00;;;1.73;;
8317;SDS011;4196;48.926;8.964;2024-02-15T02:10:06;2.30;;;1.90;;
8317;SDS011;4196;48.926;8.964;2024-02-15T02:12:53;2.83;;;2.20;;
8317;SDS011;4196;48.926;8.964;2024-02-15T02:15:40;3.07;;;1.80;;
8317;SDS011;4196;48.926;8.964;2024-02-15T02:18:27;3.43;;;1.80;;
8317;SDS011;4196;48.926;8.964;2024-02-15T02:21:13;2.30;;;1.60;;
8317;SDS011;4196;48.926;8.964;2024-02-15T02:24:00;4.87;;;1.87;;
8317;SDS011;4196;48.926;8.964;2024-02-15T02:26:49;2.97;;;2.00;;
8317;SDS011;4196;48.926;8.964;2024-02-15T02:29:36;2.93;;;1.77;;
8317;SDS011;4196;48.926;8.964;2024-02-15T02:32:32;2.63;;;1.93;;
8317;SDS011;4196;48.926;8.964;2024-02-15T02:35:20;1.90;;;1.70;;
8317;SDS011;4196;48.926;8.964;2024-02-15T02:38:07;2.47;;;1.77;;
8317;SDS011;4196;48.926;8.964;2024-02-15T02:40:54;2.03;;;1.83;;
8317;SDS011;4196;48.926;8.964;2024-02-15T02:43:41;1.97;;;1.77;;
8317;SDS011;4196;48.926;8.964;2024-02-15T02:46:27;2.53;;;1.90;;
8317;SDS011;4196;48.926;8.964;2024-02-15T02:49:14;2.13;;;1.93;;
8317;SDS011;4196;48.926;8.964;2024-02-15T02:52:00;2.30;;;1.73;;
8317;SDS011;4196;48.926;8.964;2024-02-15T02:54:47;2.47;;;1.90;;
8317;SDS011;4196;48.926;8.964;2024-02-15T02:57:37;2.77;;;2.10;;
8317;SDS011;4196;48.926;8.964;2024-02-15T03:00:24;2.90;;;2.50;;
8317;SDS011;4196;48.926;8.964;2024-02-15T03:03:11;1.83;;;1.53;;
8317;SDS011;4196;48.926;8.964;2024-02-15T03:05:57;1.67;;;1.50;;
8317;SDS011;4196;48.926;8.964;2024-02-15T03:08:44;3.53;;;3.10;;
8317;SDS011;4196;48.926;8.964;2024-02-15T03:11:31;4.73;;;1.77;;
8317;SDS011;4196;48.926;8.964;2024-02-15T03:14:17;2.10;;;1.80;;
8317;SDS011;4196;48.926;8.964;2024-02-15T03:17:04;2.73;;;1.70;;
8317;SDS011;4196;48.926;8.964;2024-02-15T03:19:50;2.47;;;1.90;;
8317;SDS011;4196;48.926;8.964;2024-02-15T03:22:37;2.60;;;1.70;;
8317;SDS011;4196;48.926;8.964;2024-02-15T03:25:24;2.60;;;1.77;;
8317;SDS011;4196;48.926;8.964;2024-02-15T03:28:11;3.07;;;1.70;;
8317;SDS011;4196;48.926;8.964;2024-02-15T03:30:58;1.80;;;1.70;;
8317;SDS011;4196;48.926;8.964;2024-02-15T03:33:46;2.40;;;1.80;;
8317;SDS011;4196;48.926;8.964;2024-02-15T03:36:36;2.10;;;1.90;;
8317;SDS011;4196;48.926;8.964;2024-02-15T03:39:23;5.70;;;2.90;;
8317;SDS011;4196;48.926;8.964;2024-02-15T03:42:10;4.23;;;2.10;;
8317;SDS011;4196;48.926;8.964;2024-02-15T03:44:57;3.83;;;1.90;;
8317;SDS011;4196;48.926;8.964;2024-02-15T03:47:43;4.43;;;1.73;;
8317;SDS011;4196;48.926;8.964;2024-02-15T03:50:31;3.13;;;1.90;;
8317;SDS011;4196;48.926;8.964;2024-02-15T03:53:19;3.40;;;2.63;;
8317;SDS011;4196;48.926;8.964;2024-02-15T03:56:05;4.90;;;3.10;;
8317;SDS011;4196;48.926;8.964;2024-02-15T03:58:52;3.43;;;1.90;;
8317;SDS011;4196;48.926;8.964;2024-02-15T04:01:39;3.33;;;2.03;;
8317;SDS011;4196;48.926;8.964;2024-02-15T04:04:26;3.13;;;2.00;;
8317;SDS011;4196;48.926;8.964;2024-02-15T04:07:15;5.27;;;2.80;;
8317;SDS011;4196;48.926;8.964;2024-02-15T04:10:03;5.60;;;3.33;;
8317;SDS011;4196;48.926;8.964;2024-02-15T04:12:54;4.00;;;2.50;;
8317;SDS011;4196;48.926;8.964;2024-02-15T04:15:41;3.37;;;2.10;;
8317;SDS011;4196;48.926;8.964;2024-02-15T04:18:29;5.67;;;2.60;;
8317;SDS011;4196;48.926;8.964;2024-02-15T04:21:18;4.83;;;2.40;;
8317;SDS011;4196;48.926;8.964;2024-02-15T04:24:06;2.53;;;1.80;;
8317;SDS011;4196;48.926;8.964;2024-02-15T04:26:53;2.03;;;1.80;;
8317;SDS011;4196;48.926;8.964;2024-02-15T04:29:40;3.70;;;2.23;;
8317;SDS011;4196;48.926;8.964;2024-02-15T04:32:27;4.07;;;2.40;;
8317;SDS011;4196;48.926;8.964;2024-02-15T04:35:15;2.87;;;2.07;;
8317;SDS011;4196;48.926;8.964;2024-02-15T04:38:01;4.17;;;1.80;;
8317;SDS011;4196;48.926;8.964;2024-02-15T04:40:49;3.37;;;2.10;;
8317;SDS011;4196;48.926;8.964;2024-02-15T04:43:36;3.33;;;2.40;;
8317;SDS011;4196;48.926;8.964;2024-02-15T04:46:23;2.93;;;2.37;;
8317;SDS011;4196;48.926;8.964;2024-02-15T04:49:10;4.20;;;2.30;;
8317;SDS011;4196;48.926;8.964;2024-02-15T04:51:57;5.47;;;1.80;;
8317;SDS011;4196;48.926;8.964;2024-02-15T04:54:46;3.90;;;2.10;;
8317;SDS011;4196;48.926;8.964;2024-02-15T04:57:32;4.43;;;2.10;;
8317;SDS011;4196;48.926;8.964;2024-02-15T05:00:21;3.10;;;2.07;;
8317;SDS011;4196;48.926;8.964;2024-02-15T05:03:09;4.97;;;2.97;;
8317;SDS011;4196;48.926;8.964;2024-02-15T05:05:56;3.87;;;2.43;;
8317;SDS011;4196;48.926;8.964;2024-02-15T05:08:42;3.43;;;2.33;;
8317;SDS011;4196;48.926;8.964;2024-02-15T05:11:29;4.20;;;2.10;;
8317;SDS011;4196;48.926;8.964;2024-02-15T05:14:15;5.17;;;2.37;;
8317;SDS011;4196;48.926;8.964;2024-02-15T05:17:05;2.30;;;1.40;;
8317;SDS011;4196;48.926;8.964;2024-02-15T05:19:55;7.27;;;1.80;;
8317;SDS011;4196;48.926;8.964;2024-02-15T05:22:45;2.00;;;1.80;;
8317;SDS011;4196;48.926;8.964;2024-02-15T05:25:36;2.63;;;1.50;;
8317;SDS011;4196;48.926;8.964;2024-02-15T05:28:22;3.40;;;1.50;;
8317;SDS011;4196;48.926;8.964;2024-02-15T05:31:14;4.03;;;1.60;;
8317;SDS011;4196;48.926;8.964;2024-02-15T05:34:06;2.37;;;1.60;;
8317;SDS011;4196;48.926;8.964;2024-02-15T05:36:55;5.13;;;1.53;;
8317;SDS011;4196;48.926;8.964;2024-02-15T05:39:41;1.77;;;1.40;;
8317;SDS011;4196;48.926;8.964;2024-02-15T05:42:28;4.20;;;1.80;;
8317;SDS011;4196;48.926;8.964;2024-02-15T05:48:11;2.80;;;1.30;;
8317;SDS011;4196;48.926;8.964;2024-02-15T05:50:59;2.03;;;1.33;;
8317;SDS011;4196;48.926;8.964;2024-02-15T05:53:47;1.87;;;1.47;;
8317;SDS011;4196;48.926;8.964;2024-02-15T05:56:35;3.20;;;1.27;;
8317;SDS011;4196;48.926;8.964;2024-02-15T05:59:22;3.23;;;2.43;;
8317;SDS011;4196;48.926;8.964;2024-02-15T06:02:08;2.17;;;1.70;;
8317;SDS011;4196;48.926;8.964;2024-02-15T06:04:55;2.90;;;1.60;;
8317;SDS011;4196;48.926;8.964;2024-02-15T06:07:49;2.20;;;1.53;;
8317;SDS011;4196;48.926;8.964;2024-02-15T06:10:36;2.70;;;1.50;;
8317;SDS011;4196;48.926;8.964;2024-02-15T06:13:23;2.00;;;1.47;;
8317;SDS011;4196;48.926;8.964;2024-02-15T06:16:10;4.50;;;2.00;;
8317;SDS011;4196;48.926;8.964;2024-02-15T06:18:56;1.87;;;1.50;;
8317;SDS011;4196;48.926;8.964;2024-02-15T06:21:43;5.17;;;1.67;;
8317;SDS011;4196;48.926;8.964;2024-02-15T06:24:30;5.03;;;3.77;;
8317;SDS011;4196;48.926;8.964;2024-02-15T06:27:16;4.27;;;2.77;;
8317;SDS011;4196;48.926;8.964;2024-02-15T06:30:03;2.97;;;2.20;;
8317;SDS011;4196;48.926;8.964;2024-02-15T06:37:34;4.80;;;2.40;;
8317;SDS011;4196;48.926;8.964;2024-02-15T06:40:40;2.40;;;1.87;;
8317;SDS011;4196;48.926;8.964;2024-02-15T06:43:26;5.73;;;2.13;;
8317;SDS011;4196;48.926;8.964;2024-02-15T06:46:13;2.53;;;1.77;;
8317;SDS011;4196;48.926;8.964;2024-02-15T06:49:00;2.97;;;1.70;;
8317;SDS011;4196;48.926;8.964;2024-02-15T06:51:47;2.40;;;1.83;;
8317;SDS011;4196;48.926;8.964;2024-02-15T06:54:35;4.20;;;1.70;;
8317;SDS011;4196;48.926;8.964;2024-02-15T06:57:22;2.27;;;1.77;;
8317;SDS011;4196;48.926;8.964;2024-02-15T07:00:09;2.97;;;1.87;;
8317;SDS011;4196;48.926;8.964;2024-02-15T07:03:01;3.30;;;1.80;;
8317;SDS011;4196;48.926;8.964;2024-02-15T07:05:47;1.67;;;1.53;;
8317;SDS011;4196;48.926;8.964;2024-02-15T07:08:35;1.70;;;1.60;;
8317;SDS011;4196;48.926;8.964;2024-02-15T07:11:22;2.47;;;1.27;;
8317;SDS011;4196;48.926;8.964;2024-02-15T07:14:08;1.97;;;1.20;;
8317;SDS011;4196;48.926;8.964;2024-02-15T07:16:55;2.97;;;1.37;;
8317;SDS011;4196;48.926;8.964;2024-02-15T07:19:45;1.63;;;1.50;;
8317;SDS011;4196;48.926;8.964;2024-02-15T07:22:35;4.00;;;2.40;;
8317;SDS011;4196;48.926;8.964;2024-02-15T07:25:23;3.23;;;2.20;;
8317;SDS011;4196;48.926;8.964;2024-02-15T07:28:09;2.70;;;1.87;;
8317;SDS011;4196;48.926;8.964;2024-02-15T07:30:56;3.17;;;1.80;;
8317;SDS011;4196;48.926;8.964;2024-02-15T07:33:43;7.90;;;3.30;;
8317;SDS011;4196;48.926;8.964;2024-02-15T07:36:30;1.50;;;1.40;;
8317;SDS011;4196;48.926;8.964;2024-02-15T07:39:17;3.37;;;1.60;;
8317;SDS011;4196;48.926;8.964;2024-02-15T07:42:10;1.80;;;1.70;;
8317;SDS011;4196;48.926;8.964;2024-02-15T07:44:57;2.50;;;1.73;;
8317;SDS011;4196;48.926;8.964;2024-02-15T07:47:54;3.00;;;1.80;;
8317;SDS011;4196;48.926;8.964;2024-02-15T07:50:44;5.97;;;1.40;;
8317;SDS011;4196;48.926;8.964;2024-02-15T07:53:33;1.60;;;1.40;;
8317;SDS011;4196;48.926;8.964;2024-02-15T07:56:23;2.00;;;1.40;;
8317;SDS011;4196;48.926;8.964;2024-02-15T07:59:10;1.37;;;1.20;;
8317;SDS011;4196;48.926;8.964;2024-02-15T08:01:59;2.87;;;1.30;;
8317;SDS011;4196;48.926;8.964;2024-02-15T08:04:46;1.33;;;1.17;;
8317;SDS011;4196;48.926;8.964;2024-02-15T08:07:34;1.53;;;1.23;;
8317;SDS011;4196;48.926;8.964;2024-02-15T08:10:23;3.80;;;1.53;;
8317;SDS011;4196;48.926;8.964;2024-02-15T08:13:09;1.57;;;1.47;;
8317;SDS011;4196;48.926;8.964;2024-02-15T08:15:56;1.33;;;1.23;;
8317;SDS011;4196;48.926;8.964;2024-02-15T08:18:43;1.90;;;1.20;;
8317;SDS011;4196;48.926;8.964;2024-02-15T08:21:31;1.23;;;1.13;;
8317;SDS011;4196;48.926;8.964;2024-02-15T08:24:25;1.37;;;1.27;;
8317;SDS011;4196;48.926;8.964;2024-02-15T08:27:15;2.03;;;1.20;;
8317;SDS011;4196;48.926;8.964;2024-02-15T08:30:04;1.90;;;1.40;;
8317;SDS011;4196;48.926;8.964;2024-02-15T08:32:56;1.63;;;1.10;;
8317;SDS011;4196;48.926;8.964;2024-02-15T08:35:45;3.23;;;1.40;;
8317;SDS011;4196;48.926;8.964;2024-02-15T08:38:39;2.90;;;1.93;;
8317;SDS011;4196;48.926;8.964;2024-02-15T08:41:29;2.60;;;1.30;;
8317;SDS011;4196;48.926;8.964;2024-02-15T08:44:17;1.90;;;1.60;;
8317;SDS011;4196;48.926;8.964;2024-02-15T08:47:07;1.80;;;1.37;;
8317;SDS011;4196;48.926;8.964;2024-02-15T08:49:55;3.33;;;1.50;;
8317;SDS011;4196;48.926;8.964;2024-02-15T08:52:46;3.00;;;1.40;;
8317;SDS011;4196;48.926;8.964;2024-02-15T08:55:33;3.93;;;1.50;;
8317;SDS011;4196;48.926;8.964;2024-02-15T08:58:22;2.40;;;1.50;;
8317;SDS011;4196;48.926;8.964;2024-02-15T09:01:11;2.70;;;1.40;;
8317;SDS011;4196;48.926;8.964;2024-02-15T09:03:59;1.40;;;1.30;;
8317;SDS011;4196;48.926;8.964;2024-02-15T09:06:46;2.03;;;1.57;;
8317;SDS011;4196;48.926;8.964;2024-02-15T09:09:33;2.50;;;1.77;;
8317;SDS011;4196;48.926;8.964;2024-02-15T09:12:19;5.03;;;1.67;;
8317;SDS011;4196;48.926;8.964;2024-02-15T09:15:06;1.53;;;1.30;;
8317;SDS011;4196;48.926;8.964;2024-02-15T09:17:54;2.27;;;1.57;;
8317;SDS011;4196;48.926;8.964;2024-02-15T09:20:41;2.00;;;1.43;;
8317;SDS011;4196;48.926;8.964;2024-02-15T09:23:30;2.10;;;1.70;;
8317;SDS011;4196;48.926;8.964;2024-02-15T09:26:17;1.60;;;1.50;;
8317;SDS011;4196;48.926;8.964;2024-02-15T09:29:04;7.73;;;2.00;;
8317;SDS011;4196;48.926;8.964;2024-02-15T09:31:53;4.53;;;2.33;;
8317;SDS011;4196;48.926;8.964;2024-02-15T09:34:40;2.53;;;1.50;;
8317;SDS011;4196;48.926;8.964;2024-02-15T09:37:28;2.57;;;1.40;;
8317;SDS011;4196;48.926;8.964;2024-02-15T09:40:16;3.10;;;1.60;;
8317;SDS011;4196;48.926;8.964;2024-02-15T09:43:04;5.10;;;1.80;;
8317;SDS011;4196;48.926;8.964;2024-02-15T09:45:50;6.40;;;1.50;;
8317;SDS011;4196;48.926;8.964;2024-02-15T09:48:36;3.33;;;1.60;;
8317;SDS011;4196;48.926;8.964;2024-02-15T09:51:26;4.53;;;1.90;;
8317;SDS011;4196;48.926;8.964;2024-02-15T09:54:14;3.30;;;1.70;;
8317;SDS011;4196;48.926;8.964;2024-02-15T09:57:08;3.77;;;1.37;;
8317;SDS011;4196;48.926;8.964;2024-02-15T09:59:56;1.63;;;1.30;;
8317;SDS011;4196;48.926;8.964;2024-02-15T10:02:43;2.20;;;1.50;;
8317;SDS011;4196;48.926;8.964;2024-02-15T10:05:31;2.10;;;1.40;;
8317;SDS011;4196;48.926;8.964;2024-02-15T10:08:18;4.00;;;1.50;;
8317;SDS011;4196;48.926;8.964;2024-02-15T10:11:07;6.07;;;1.30;;
8317;SDS011;4196;48.926;8.964;2024-02-15T10:14:09;2.70;;;1.00;;
8317;SDS011;4196;48.926;8.964;2024-02-15T10:16:59;1.67;;;1.27;;
8317;SDS011;4196;48.926;8.964;2024-02-15T10:20:05;1.67;;;1.23;;
8317;SDS011;4196;48.926;8.964;2024-02-15T10:22:53;1.30;;;1.20;;
8317;SDS011;4196;48.926;8.964;2024-02-15T10:25:56;1.37;;;1.27;;
8317;SDS011;4196;48.926;8.964;2024-02-15T10:28:44;1.73;;;1.20;;
8317;SDS011;4196;48.926;8.964;2024-02-15T10:31:30;2.33;;;1.50;;
8317;SDS011;4196;48.926;8.964;2024-02-15T10:34:18;3.40;;;1.13;;
8317;SDS011;4196;48.926;8.964;2024-02-15T10:37:10;3.97;;;1.87;;
8317;SDS011;4196;48.926;8.964;2024-02-15T10:40:04;14.03;;;3.00;;
8317;SDS011;4196;48.926;8.964;2024-02-15T10:42:54;38.60;;;3.27;;
8317;SDS011;4196;48.926;8.964;2024-02-15T10:45:44;4.13;;;1.40;;
8317;SDS011;4196;48.926;8.964;2024-02-15T10:48:31;3.07;;;1.30;;
8317;SDS011;4196;48.926;8.964;2024-02-15T10:51:18;3.90;;;1.70;;
8317;SDS011;4196;48.926;8.964;2024-02-15T10:54:06;2.77;;;1.50;;
8317;SDS011;4196;48.926;8.964;2024-02-15T10:56:54;3.60;;;1.60;;
8317;SDS011;4196;48.926;8.964;2024-02-15T10:59:48;2.67;;;1.30;;
8317;SDS011;4196;48.926;8.964;2024-02-15T11:02:57;3.23;;;1.30;;
8317;SDS011;4196;48.926;8.964;2024-02-15T11:05:48;4.07;;;1.37;;
8317;SDS011;4196;48.926;8.964;2024-02-15T11:08:35;2.80;;;1.60;;
8317;SDS011;4196;48.926;8.964;2024-02-15T11:11:22;2.33;;;1.53;;
8317;SDS011;4196;48.926;8.964;2024-02-15T11:14:22;2.37;;;1.40;;
8317;SDS011;4196;48.926;8.964;2024-02-15T11:17:09;2.37;;;1.30;;
8317;SDS011;4196;48.926;8.964;2024-02-15T11:19:59;4.43;;;1.10;;
8317;SDS011;4196;48.926;8.964;2024-02-15T11:22:46;1.53;;;1.20;;
8317;SDS011;4196;48.926;8.964;2024-02-15T11:25:42;1.40;;;1.30;;
8317;SDS011;4196;48.926;8.964;2024-02-15T11:31:52;4.33;;;1.40;;
8317;SDS011;4196;48.926;8.964;2024-02-15T11:34:44;1.17;;;1.10;;
8317;SDS011;4196;48.926;8.964;2024-02-15T11:46:32;1.73;;;1.20;;
8317;SDS011;4196;48.926;8.964;2024-02-15T11:49:20;1.77;;;1.07;;
8317;SDS011;4196;48.926;8.964;2024-02-15T11:52:10;2.47;;;1.10;;
8317;SDS011;4196;48.926;8.964;2024-02-15T11:55:04;1.47;;;1.00;;
8317;SDS011;4196;48.926;8.964;2024-02-15T11:57:57;1.40;;;1.20;;
8317;SDS011;4196;48.926;8.964;2024-02-15T12:00:59;2.57;;;1.07;;
8317;SDS011;4196;48.926;8.964;2024-02-15T12:04:04;1.17;;;0.93;;
8317;SDS011;4196;48.926;8.964;2024-02-15T12:07:09;2.30;;;1.00;;
8317;SDS011;4196;48.926;8.964;2024-02-15T12:10:18;1.20;;;1.00;;
8317;SDS011;4196;48.926;8.964;2024-02-15T12:13:23;2.17;;;1.17;;
8317;SDS011;4196;48.926;8.964;2024-02-15T12:16:28;1.33;;;0.80;;
8317;SDS011;4196;48.926;8.964;2024-02-15T12:19:33;2.70;;;1.13;;
8317;SDS011;4196;48.926;8.964;2024-02-15T12:22:28;1.10;;;0.90;;
8317;SDS011;4196;48.926;8.964;2024-02-15T12:25:27;2.20;;;1.03;;
8317;SDS011;4196;48.926;8.964;2024-02-15T12:28:13;2.33;;;1.43;;
8317;SDS011;4196;48.926;8.964;2024-02-15T12:31:01;2.83;;;1.10;;
8317;SDS011;4196;48.926;8.964;2024-02-15T12:34:01;1.60;;;1.00;;
8317;SDS011;4196;48.926;8.964;2024-02-15T12:37:04;1.10;;;1.00;;
8317;SDS011;4196;48.926;8.964;2024-02-15T12:39:52;4.50;;;1.23;;
8317;SDS011;4196;48.926;8.964;2024-02-15T12:42:39;2.20;;;1.13;;
8317;SDS011;4196;48.926;8.964;2024-02-15T12:45:26;3.90;;;1.13;;
8317;SDS011;4196;48.926;8.964;2024-02-15T12:48:14;3.67;;;1.23;;
8317;SDS011;4196;48.926;8.964;2024-02-15T12:51:12;2.23;;;0.90;;
8317;SDS011;4196;48.926;8.964;2024-02-15T12:54:09;3.10;;;1.23;;
8317;SDS011;4196;48.926;8.964;2024-02-15T12:57:09;2.17;;;0.87;;
8317;SDS011;4196;48.926;8.964;2024-02-15T13:00:01;4.13;;;0.83;;
8317;SDS011;4196;48.926;8.964;2024-02-15T13:03:02;2.77;;;1.10;;
8317;SDS011;4196;48.926;8.964;2024-02-15T13:05:50;2.23;;;1.27;;
8317;SDS011;4196;48.926;8.964;2024-02-15T13:08:37;1.63;;;1.00;;
8317;SDS011;4196;48.926;8.964;2024-02-15T13:11:24;1.40;;;1.17;;
8317;SDS011;4196;48.926;8.964;2024-02-15T13:14:12;1.20;;;0.80;;
8317;SDS011;4196;48.926;8.964;2024-02-15T13:16:59;1.80;;;1.00;;
8317;SDS011;4196;48.926;8.964;2024-02-15T13:19:45;3.93;;;1.20;;
8317;SDS011;4196;48.926;8.964;2024-02-15T13:22:35;0.83;;;0.70;;
8317;SDS011;4196;48.926;8.964;2024-02-15T13:25:22;3.90;;;0.90;;
8317;SDS011;4196;48.926;8.964;2024-02-15T13:28:08;0.77;;;0.77;;
8317;SDS011;4196;48.926;8.964;2024-02-15T13:31:00;1.23;;;0.80;;
8317;SDS011;4196;48.926;8.964;2024-02-15T13:33:47;1.77;;;1.00;;
8317;SDS011;4196;48.926;8.964;2024-02-15T13:36:34;0.90;;;0.80;;
8317;SDS011;4196;48.926;8.964;2024-02-15T13:39:20;1.60;;;1.00;;
8317;SDS011;4196;48.926;8.964;2024-02-15T13:42:08;1.23;;;0.83;;
8317;SDS011;4196;48.926;8.964;2024-02-15T13:44:55;1.37;;;1.13;;
8317;SDS011;4196;48.926;8.964;2024-02-15T13:47:46;2.40;;;0.67;;
8317;SDS011;4196;48.926;8.964;2024-02-15T13:50:38;1.17;;;0.80;;
8317;SDS011;4196;48.926;8.964;2024-02-15T13:53:25;4.07;;;1.00;;
8317;SDS011;4196;48.926;8.964;2024-02-15T13:56:14;2.10;;;0.80;;
8317;SDS011;4196;48.926;8.964;2024-02-15T13:59:02;3.20;;;1.30;;
8317;SDS011;4196;48.926;8.964;2024-02-15T14:01:51;2.63;;;1.10;;
8317;SDS011;4196;48.926;8.964;2024-02-15T14:04:39;1.23;;;0.83;;
8317;SDS011;4196;48.926;8.964;2024-02-15T14:07:26;3.00;;;1.33;;
8317;SDS011;4196;48.926;8.964;2024-02-15T14:10:13;1.17;;;0.70;;
8317;SDS011;4196;48.926;8.964;2024-02-15T14:12:59;1.13;;;1.03;;
8317;SDS011;4196;48.926;8.964;2024-02-15T14:15:47;2.60;;;1.10;;
8317;SDS011;4196;48.926;8.964;2024-02-15T14:18:34;1.93;;;1.10;;
8317;SDS011;4196;48.926;8.964;2024-02-15T14:21:21;1.63;;;0.90;;
8317;SDS011;4196;48.926;8.964;2024-02-15T14:24:08;4.43;;;1.53;;
8317;SDS011;4196;48.926;8.964;2024-02-15T14:26:54;1.37;;;1.17;;
8317;SDS011;4196;48.926;8.964;2024-02-15T14:29:41;1.60;;;1.00;;
8317;SDS011;4196;48.926;8.964;2024-02-15T14:32:51;2.37;;;1.17;;
8317;SDS011;4196;48.926;8.964;2024-02-15T14:35:50;1.77;;;1.20;;
8317;SDS011;4196;48.926;8.964;2024-02-15T14:38:40;6.83;;;1.30;;
8317;SDS011;4196;48.926;8.964;2024-02-15T14:41:27;1.77;;;1.20;;
8317;SDS011;4196;48.926;8.964;2024-02-15T14:44:17;2.80;;;1.30;;
8317;SDS011;4196;48.926;8.964;2024-02-15T14:47:04;1.33;;;1.20;;
8317;SDS011;4196;48.926;8.964;2024-02-15T14:49:51;3.07;;;1.07;;
8317;SDS011;4196;48.926;8.964;2024-02-15T14:52:38;1.20;;;1.10;;
8317;SDS011;4196;48.926;8.964;2024-02-15T14:55:24;1.90;;;1.10;;
8317;SDS011;4196;48.926;8.964;2024-02-15T14:58:13;2.00;;;1.20;;
8317;SDS011;4196;48.926;8.964;2024-02-15T15:01:04;3.17;;;1.30;;
8317;SDS011;4196;48.926;8.964;2024-02-15T15:03:54;3.27;;;1.30;;
8317;SDS011;4196;48.926;8.964;2024-02-15T15:06:45;3.67;;;1.10;;
8317;SDS011;4196;48.926;8.964;2024-02-15T15:09:51;2.47;;;1.17;;
8317;SDS011;4196;48.926;8.964;2024-02-15T15:12:56;7.77;;;1.47;;
8317;SDS011;4196;48.926;8.964;2024-02-15T15:15:42;2.87;;;1.20;;
8317;SDS011;4196;48.926;8.964;2024-02-15T15:18:29;2.67;;;1.20;;
8317;SDS011;4196;48.926;8.964;2024-02-15T15:21:21;7.47;;;2.53;;
8317;SDS011;4196;48.926;8.964;2024-02-15T15:24:09;2.00;;;1.10;;
8317;SDS011;4196;48.926;8.964;2024-02-15T15:26:56;1.40;;;1.17;;
8317;SDS011;4196;48.926;8.964;2024-02-15T15:29:42;2.73;;;1.27;;
8317;SDS011;4196;48.926;8.964;2024-02-15T15:32:32;1.87;;;1.07;;
8317;SDS011;4196;48.926;8.964;2024-02-15T15:35:29;1.73;;;1.23;;
8317;SDS011;4196;48.926;8.964;2024-02-15T15:38:19;1.97;;;1.17;;
8317;SDS011;4196;48.926;8.964;2024-02-15T15:41:08;2.60;;;1.23;;
8317;SDS011;4196;48.926;8.964;2024-02-15T15:43:56;1.43;;;0.97;;
8317;SDS011;4196;48.926;8.964;2024-02-15T15:46:42;1.87;;;1.10;;
8317;SDS011;4196;48.926;8.964;2024-02-15T15:49:29;1.93;;;1.37;;
8317;SDS011;4196;48.926;8.964;2024-02-15T15:52:17;3.57;;;2.43;;
8317;SDS011;4196;48.926;8.964;2024-02-15T15:55:04;5.70;;;2.20;;
8317;SDS011;4196;48.926;8.964;2024-02-15T15:57:56;4.40;;;2.57;;
8317;SDS011;4196;48.926;8.964;2024-02-15T16:00:43;6.43;;;3.23;;
8317;SDS011;4196;48.926;8.964;2024-02-15T16:03:30;5.60;;;3.00;;
8317;SDS011;4196;48.926;8.964;2024-02-15T16:06:18;7.73;;;3.67;;
8317;SDS011;4196;48.926;8.964;2024-02-15T16:09:05;4.50;;;2.80;;
8317;SDS011;4196;48.926;8.964;2024-02-15T16:11:51;5.50;;;1.97;;
8317;SDS011;4196;48.926;8.964;2024-02-15T16:14:40;4.47;;;2.33;;
8317;SDS011;4196;48.926;8.964;2024-02-15T16:17:27;4.60;;;2.40;;
8317;SDS011;4196;48.926;8.964;2024-02-15T16:20:15;9.93;;;2.77;;
8317;SDS011;4196;48.926;8.964;2024-02-15T16:23:02;6.83;;;2.60;;
8317;SDS011;4196;48.926;8.964;2024-02-15T16:25:49;5.30;;;2.30;;
8317;SDS011;4196;48.926;8.964;2024-02-15T16:28:37;7.37;;;2.40;;
8317;SDS011;4196;48.926;8.964;2024-02-15T16:31:32;6.47;;;2.43;;
8317;SDS011;4196;48.926;8.964;2024-02-15T16:34:18;4.53;;;2.60;;
8317;SDS011;4196;48.926;8.964;2024-02-15T16:37:05;6.70;;;2.53;;
8317;SDS011;4196;48.926;8.964;2024-02-15T16:39:51;7.03;;;2.97;;
8317;SDS011;4196;48.926;8.964;2024-02-15T16:42:40;6.77;;;2.73;;
8317;SDS011;4196;48.926;8.964;2024-02-15T16:45:33;7.43;;;3.17;;
8317;SDS011;4196;48.926;8.964;2024-02-15T16:48:20;8.43;;;3.60;;
8317;SDS011;4196;48.926;8.964;2024-02-15T16:51:07;6.47;;;2.70;;
8317;SDS011;4196;48.926;8.964;2024-02-15T16:53:55;10.50;;;2.80;;
8317;SDS011;4196;48.926;8.964;2024-02-15T16:56:42;5.83;;;2.83;;
8317;SDS011;4196;48.926;8.964;2024-02-15T16:59:33;5.27;;;2.60;;
8317;SDS011;4196;48.926;8.964;2024-02-15T17:02:20;4.07;;;2.40;;
8317;SDS011;4196;48.926;8.964;2024-02-15T17:05:06;4.97;;;2.43;;
8317;SDS011;4196;48.926;8.964;2024-02-15T17:07:54;4.50;;;3.03;;
8317;SDS011;4196;48.926;8.964;2024-02-15T17:10:42;4.87;;;2.83;;
8317;SDS011;4196;48.926;8.964;2024-02-15T17:13:29;24.10;;;5.10;;
8317;SDS011;4196;48.926;8.964;2024-02-15T17:16:16;5.93;;;2.67;;
8317;SDS011;4196;48.926;8.964;2024-02-15T17:19:03;5.23;;;2.90;;
8317;SDS011;4196;48.926;8.964;2024-02-15T17:21:52;4.70;;;2.67;;
8317;SDS011;4196;48.926;8.964;2024-02-15T17:24:40;2.77;;;2.20;;
8317;SDS011;4196;48.926;8.964;2024-02-15T17:27:27;5.00;;;3.03;;
8317;SDS011;4196;48.926;8.964;2024-02-15T17:30:14;3.43;;;2.70;;
8317;SDS011;4196;48.926;8.964;2024-02-15T17:33:00;8.13;;;2.80;;
8317;SDS011;4196;48.926;8.964;2024-02-15T17:35:47;3.40;;;2.37;;
8317;SDS011;4196;48.926;8.964;2024-02-15T17:38:39;3.60;;;2.67;;
8317;SDS011;4196;48.926;8.964;2024-02-15T17:41:26;5.00;;;3.00;;
8317;SDS011;4196;48.926;8.964;2024-02-15T17:44:15;13.13;;;3.50;;
8317;SDS011;4196;48.926;8.964;2024-02-15T17:47:01;4.87;;;2.70;;
8317;SDS011;4196;48.926;8.964;2024-02-15T17:49:47;6.33;;;3.00;;
8317;SDS011;4196;48.926;8.964;2024-02-15T17:52:34;5.27;;;2.83;;
8317;SDS011;4196;48.926;8.964;2024-02-15T17:55:22;2.90;;;2.20;;
8317;SDS011;4196;48.926;8.964;2024-02-15T17:58:08;5.07;;;2.27;;
8317;SDS011;4196;48.926;8.964;2024-02-15T18:00:55;3.00;;;2.20;;
8317;SDS011;4196;48.926;8.964;2024-02-15T18:03:42;4.73;;;2.97;;
8317;SDS011;4196;48.926;8.964;2024-02-15T18:06:28;4.83;;;2.90;;
8317;SDS011;4196;48.926;8.964;2024-02-15T18:09:20;4.23;;;3.00;;
8317;SDS011;4196;48.926;8.964;2024-02-15T18:12:08;5.53;;;3.17;;
8317;SDS011;4196;48.926;8.964;2024-02-15T18:14:57;6.23;;;2.80;;
8317;SDS011;4196;48.926;8.964;2024-02-15T18:17:44;5.90;;;3.47;;
8317;SDS011;4196;48.926;8.964;2024-02-15T18:20:32;4.63;;;2.93;;
8317;SDS011;4196;48.926;8.964;2024-02-15T18:23:19;3.53;;;2.43;;
8317;SDS011;4196;48.926;8.964;2024-02-15T18:26:27;3.90;;;3.00;;
8317;SDS011;4196;48.926;8.964;2024-02-15T18:29:13;6.53;;;3.13;;
8317;SDS011;4196;48.926;8.964;2024-02-15T18:32:01;5.77;;;3.50;;
8317;SDS011;4196;48.926;8.964;2024-02-15T18:34:48;8.07;;;3.70;;
8317;SDS011;4196;48.926;8.964;2024-02-15T18:37:35;6.10;;;3.47;;
8317;SDS011;4196;48.926;8.964;2024-02-15T18:40:21;8.37;;;4.43;;
8317;SDS011;4196;48.926;8.964;2024-02-15T18:43:10;8.80;;;3.63;;
8317;SDS011;4196;48.926;8.964;2024-02-15T18:45:57;9.03;;;4.37;;
8317;SDS011;4196;48.926;8.964;2024-02-15T18:48:44;9.13;;;3.40;;
8317;SDS011;4196;48.926;8.964;2024-02-15T18:51:30;5.67;;;3.23;;
8317;SDS011;4196;48.926;8.964;2024-02-15T18:54:17;10.50;;;5.00;;
8317;SDS011;4196;48.926;8.964;2024-02-15T18:57:06;11.47;;;4.40;;
8317;SDS011;4196;48.926;8.964;2024-02-15T18:59:55;7.73;;;4.30;;